Time;durP1;ratioP1;P1;durP2;ratioP2;P2;SDS_P1;SDS_P2;PMS_P1;PMS_P2;Temp;Humidity;BMP_temperature;BMP_pressure;BME280_temperature;BME280_humidity;BME280_pressure;Samples;Min_cycle;Max_cycle;Signal;HPM_P1;HPM_P2
2023/09/10 00:00:51;;;;;;;9.30;7.30;;;;;;;19.38;100.00;150909.44;4999471;28;20222;-57
2023/09/10 00:03:18;;;;;;;11.77;7.83;;;;;;;19.45;100.00;150928.25;4999590;28;20472;-58
2023/09/10 00:05:44;;;;;;;12.57;7.33;;;;;;;19.45;100.00;150926.97;5000138;28;20213;-58
2023/09/10 00:08:12;;;;;;;7.80;6.80;;;;;;;19.41;100.00;150916.94;4999269;28;20238;-58
2023/09/10 00:10:41;;;;;;;10.00;7.43;;;;;;;19.50;100.00;150939.47;4999942;28;20313;-58
2023/09/10 00:13:08;;;;;;;14.03;7.23;;;;;;;19.45;100.00;150926.97;4995356;28;20234;-58
2023/09/10 00:15:35;;;;;;;8.47;7.50;;;;;;;19.40;100.00;150915.72;5000029;28;20703;-58
2023/09/10 00:18:02;;;;;;;9.57;7.20;;;;;;;19.38;100.00;150909.44;4997513;28;20242;-58
2023/09/10 00:20:28;;;;;;;10.73;7.10;;;;;;;19.33;100.00;150899.41;5001764;28;20242;-58
2023/09/10 00:22:56;;;;;;;10.97;7.07;;;;;;;19.26;100.00;150880.66;4997299;28;20227;-58
2023/09/10 00:25:24;;;;;;;10.67;7.10;;;;;;;19.26;100.00;150881.88;5000039;28;20242;-58
2023/09/10 00:27:50;;;;;;;11.03;7.30;;;;;;;19.30;99.65;150890.66;4994387;28;20234;-58
2023/09/10 00:30:17;;;;;;;14.97;7.33;;;;;;;19.31;99.48;150893.16;4998174;28;20240;-57
2023/09/10 00:32:44;;;;;;;12.23;8.00;;;;;;;19.38;99.65;150909.44;4981627;28;20222;-57
2023/09/10 00:35:10;;;;;;;14.37;7.40;;;;;;;19.40;99.41;150915.72;4994688;28;20253;-57
2023/09/10 00:37:37;;;;;;;8.17;6.90;;;;;;;19.40;98.37;150914.44;4984202;28;20305;-57
2023/09/10 00:40:05;;;;;;;9.43;7.43;;;;;;;19.38;98.56;150909.44;4977442;28;20225;-58
2023/09/10 00:42:33;;;;;;;10.13;7.07;;;;;;;19.24;98.17;150876.88;4978193;28;20232;-57
2023/09/10 00:44:59;;;;;;;7.70;6.17;;;;;;;19.22;97.72;150871.88;4967636;28;20236;-58
2023/09/10 00:47:26;;;;;;;11.60;7.03;;;;;;;19.26;97.73;150880.66;4987391;28;20234;-57
2023/09/10 00:49:53;;;;;;;9.43;7.10;;;;;;;19.29;96.64;150888.16;5000265;28;20229;-57
2023/09/10 00:52:21;;;;;;;10.90;6.70;;;;;;;19.26;96.92;150881.88;4998545;28;20246;-58
2023/09/10 00:54:49;;;;;;;8.60;6.43;;;;;;;19.25;97.17;150878.16;4977569;28;20239;-58
2023/09/10 00:57:17;;;;;;;15.53;7.07;;;;;;;19.25;96.79;150878.16;4999722;28;20238;-58
2023/09/10 00:59:45;;;;;;;9.97;6.67;;;;;;;19.26;96.91;150881.88;4979935;28;20215;-58
2023/09/10 01:02:14;;;;;;;9.60;6.27;;;;;;;19.23;96.30;150874.38;4978286;28;20420;-57
2023/09/10 01:04:40;;;;;;;11.00;6.50;;;;;;;19.22;95.02;150871.88;4979474;28;20219;-58
2023/09/10 01:07:07;;;;;;;11.10;6.70;;;;;;;19.19;94.41;150864.34;4979800;28;20988;-57
2023/09/10 01:09:34;;;;;;;10.73;6.37;;;;;;;19.21;93.42;150868.13;4978859;28;20701;-58
2023/09/10 01:12:07;;;;;;;11.30;6.50;;;;;;;19.17;93.16;150859.34;4978155;28;20230;-58
2023/09/10 01:14:37;;;;;;;15.00;6.97;;;;;;;19.14;93.15;150853.09;5000175;28;20283;-58
2023/09/10 01:17:14;;;;;;;8.03;5.83;;;;;;;19.11;92.67;150845.59;4973024;28;20222;-57
2023/09/10 01:20:11;;;;;;;9.47;5.93;;;;;;;19.16;90.03;150856.84;4999869;28;20237;-57
2023/09/10 01:22:45;;;;;;;8.13;6.40;;;;;;;19.09;90.56;150840.59;4994781;28;20255;-57
2023/09/10 01:25:14;;;;;;;9.30;6.37;;;;;;;19.01;90.90;150820.53;4994389;28;20223;-57
2023/09/10 01:27:43;;;;;;;9.63;5.93;;;;;;;18.94;91.90;150802.97;4997960;28;20235;-58
2023/09/10 01:30:10;;;;;;;9.97;6.90;;;;;;;18.87;91.72;150786.72;4992909;28;20242;-58
2023/09/10 01:32:42;;;;;;;12.80;6.37;;;;;;;18.81;90.17;150772.94;4997046;28;20231;-58
2023/09/10 01:35:14;;;;;;;9.70;6.20;;;;;;;18.84;89.66;150780.44;4977721;28;20303;-58
2023/09/10 01:37:46;;;;;;;6.57;5.73;;;;;;;18.87;91.83;150786.72;4981029;28;20240;-58
2023/09/10 01:40:20;;;;;;;8.93;6.23;;;;;;;18.72;91.18;150750.38;4968493;28;20234;-58
2023/09/10 01:42:48;;;;;;;7.80;5.90;;;;;;;18.67;91.16;150737.88;4996549;28;20228;-57
2023/09/10 01:45:15;;;;;;;8.17;6.23;;;;;;;18.69;89.23;150742.88;4975866;28;20237;-57
2023/09/10 01:47:42;;;;;;;11.03;6.27;;;;;;;18.74;89.35;150755.41;4972096;28;20226;-57
2023/09/10 01:50:09;;;;;;;9.70;5.77;;;;;;;18.68;89.45;150740.38;4979197;28;20247;-57
2023/09/10 01:52:36;;;;;;;8.33;6.20;;;;;;;18.69;89.94;150744.16;4994495;28;20235;-58
2023/09/10 01:55:03;;;;;;;9.37;6.07;;;;;;;18.62;89.83;150726.63;4970604;28;20285;-57
2023/09/10 01:57:31;;;;;;;8.33;5.73;;;;;;;18.61;89.52;150724.13;4979490;28;20222;-58
2023/09/10 01:59:58;;;;;;;8.43;6.10;;;;;;;18.54;89.38;150706.59;4977394;28;20232;-58
2023/09/10 02:02:24;;;;;;;8.37;5.70;;;;;;;18.60;87.98;150721.63;4981723;28;20728;-58
2023/09/10 02:04:51;;;;;;;8.40;6.33;;;;;;;18.57;89.91;150714.13;4973337;28;20222;-58
2023/09/10 02:07:18;;;;;;;12.43;6.10;;;;;;;18.53;88.03;150704.09;4998118;28;20231;-55
2023/09/10 02:09:44;;;;;;;7.80;5.47;;;;;;;18.46;87.67;150687.84;4981217;28;20761;-58
2023/09/10 02:12:11;;;;;;;7.50;5.50;;;;;;;18.42;87.80;150679.06;4982622;28;20265;-58
2023/09/10 02:14:39;;;;;;;7.77;6.33;;;;;;;18.36;88.89;150664.03;4985440;28;20242;-58
2023/09/10 02:17:07;;;;;;;8.23;6.53;;;;;;;18.39;87.58;150671.56;4982828;28;20913;-58
2023/09/10 02:19:34;;;;;;;8.20;5.80;;;;;;;18.41;88.22;150676.56;4986661;28;20308;-55
2023/09/10 02:22:03;;;;;;;11.20;5.87;;;;;;;18.39;88.08;150671.56;4982726;28;20234;-58
2023/09/10 02:24:29;;;;;;;7.83;5.77;;;;;;;18.38;87.81;150667.81;4979042;28;20225;-60
2023/09/10 02:26:56;;;;;;;6.93;5.53;;;;;;;18.37;87.99;150665.31;4984913;28;20217;-58
2023/09/10 02:29:23;;;;;;;10.33;6.27;;;;;;;18.38;87.76;150669.06;4977359;28;20239;-58
2023/09/10 02:32:16;;;;;;;8.97;6.77;;;;;;;18.37;88.16;150666.56;4999509;28;20697;-58
2023/09/10 02:34:42;;;;;;;7.60;6.03;;;;;;;18.39;87.64;150671.56;4977555;28;20470;-58
2023/09/10 02:37:09;;;;;;;8.07;5.57;;;;;;;18.41;86.96;150675.34;4977096;28;20711;-57
2023/09/10 02:39:36;;;;;;;9.73;5.80;;;;;;;18.34;87.69;150657.81;4979223;28;20232;-58
2023/09/10 02:42:02;;;;;;;10.07;6.13;;;;;;;18.38;87.57;150669.06;4982639;28;20216;-58
2023/09/10 02:44:29;;;;;;;11.30;6.10;;;;;;;18.34;87.80;150657.81;4985854;28;20218;-58
2023/09/10 02:46:56;;;;;;;8.27;6.10;;;;;;;18.40;86.13;150674.06;5000405;28;20316;-57
2023/09/10 02:49:24;;;;;;;8.73;6.30;;;;;;;18.36;87.62;150662.81;5004423;28;20244;-57
2023/09/10 02:51:51;;;;;;;6.73;5.53;;;;;;;18.28;87.29;150644.03;4984285;28;20248;-57
2023/09/10 02:54:23;;;;;;;6.93;6.20;;;;;;;18.28;89.00;150644.03;5004946;28;20228;-58
2023/09/10 02:56:51;;;;;;;7.83;6.00;;;;;;;18.20;90.45;150625.28;4975955;28;20237;-58
2023/09/10 02:59:25;;;;;;;10.23;6.13;;;;;;;18.18;88.49;150619.00;5008335;28;20236;-58
2023/09/10 03:01:51;;;;;;;7.80;5.97;;;;;;;18.13;88.26;150607.75;4983047;28;20256;-58
2023/09/10 03:04:24;;;;;;;9.60;5.67;;;;;;;18.18;91.21;150620.25;4987428;28;20255;-58
2023/09/10 03:06:51;;;;;;;7.60;5.80;;;;;;;18.09;90.53;150597.75;5001382;28;20224;-57
2023/09/10 03:09:23;;;;;;;7.33;5.43;;;;;;;18.04;89.90;150586.47;5001096;28;20244;-57
2023/09/10 03:11:49;;;;;;;9.30;5.40;;;;;;;18.07;91.24;150593.97;4983820;28;20307;-56
2023/09/10 03:14:20;;;;;;;9.07;6.30;;;;;;;18.06;88.84;150591.47;5000907;28;20226;-58
2023/09/10 03:16:47;;;;;;;11.50;6.00;;;;;;;18.07;87.36;150593.97;4986749;28;20275;-56
2023/09/10 03:19:15;;;;;;;8.67;5.40;;;;;;;18.01;87.47;150579.00;4972708;28;20232;-58
2023/09/10 03:21:43;;;;;;;7.37;6.00;;;;;;;17.97;88.81;150570.16;4985833;28;20831;-57
2023/09/10 03:24:09;;;;;;;7.30;5.63;;;;;;;17.96;88.97;150566.44;4983228;28;20707;-57
2023/09/10 03:26:36;;;;;;;9.57;6.17;;;;;;;18.05;87.33;150587.72;4986299;28;20221;-57
2023/09/10 03:29:03;;;;;;;9.50;5.67;;;;;;;17.98;87.93;150571.44;4972663;28;20305;-57
2023/09/10 03:31:30;;;;;;;11.10;6.30;;;;;;;18.07;91.89;150593.97;5186135;23;20253;-58
2023/09/10 03:33:57;;;;;;;10.07;5.90;;;;;;;18.12;88.94;150606.47;4999302;28;20671;-57
2023/09/10 03:36:24;;;;;;;10.57;5.83;;;;;;;18.02;87.94;150580.22;4987087;28;20233;-57
2023/09/10 03:38:52;;;;;;;8.73;6.07;;;;;;;17.95;89.30;150563.94;4999916;28;20298;-57
2023/09/10 03:41:19;;;;;;;7.13;5.77;;;;;;;17.96;91.48;150567.66;4984853;28;20292;-58
2023/09/10 03:43:45;;;;;;;9.87;5.87;;;;;;;17.91;92.17;150553.91;4985996;28;20283;-57
2023/09/10 03:46:12;;;;;;;9.93;5.53;;;;;;;18.03;90.20;150582.72;4983120;28;20221;-58
2023/09/10 03:48:39;;;;;;;10.70;6.33;;;;;;;17.91;92.29;150553.91;4989029;28;20216;-58
2023/09/10 03:51:06;;;;;;;7.87;6.20;;;;;;;17.81;92.50;150531.41;4983674;28;20239;-57
2023/09/10 03:53:32;;;;;;;8.10;5.60;;;;;;;17.73;92.99;150511.38;4985566;28;20223;-58
2023/09/10 03:56:00;;;;;;;8.13;6.07;;;;;;;17.66;93.37;150493.88;4974873;28;20234;-58
2023/09/10 03:58:27;;;;;;;8.60;6.20;;;;;;;17.59;93.57;150477.56;5003990;28;20265;-57
2023/09/10 04:00:54;;;;;;;10.80;6.23;;;;;;;17.49;94.40;150453.84;4998009;28;20221;-57
2023/09/10 04:03:21;;;;;;;10.43;6.10;;;;;;;17.44;95.56;150441.31;4999848;28;20230;-56
2023/09/10 04:05:47;;;;;;;8.30;6.37;;;;;;;17.41;95.85;150435.09;4993406;28;20221;-57
2023/09/10 04:08:14;;;;;;;7.67;5.70;;;;;;;17.31;97.23;150410.06;4979516;28;20239;-57
2023/09/10 04:10:40;;;;;;;9.77;6.20;;;;;;;17.27;97.25;150400.06;5003203;28;20220;-57
2023/09/10 04:13:08;;;;;;;9.27;6.30;;;;;;;17.23;97.20;150390.06;4990847;28;20569;-57
2023/09/10 04:15:35;;;;;;;10.13;6.67;;;;;;;17.15;98.11;150370.06;4985720;28;20720;-55
2023/09/10 04:18:03;;;;;;;8.17;6.53;;;;;;;17.10;98.47;150358.78;5001353;28;20227;-56
2023/09/10 04:20:30;;;;;;;8.87;7.07;;;;;;;17.03;100.00;150341.25;4980691;28;20216;-56
2023/09/10 04:22:56;;;;;;;9.50;6.30;;;;;;;17.01;99.44;150336.25;4988585;28;20703;-56
2023/09/10 04:25:23;;;;;;;10.13;6.53;;;;;;;16.96;99.79;150324.97;5006767;28;21115;-57
2023/09/10 04:27:50;;;;;;;10.40;6.87;;;;;;;16.93;99.32;150317.47;5002622;28;20225;-57
2023/09/10 04:30:18;;;;;;;10.13;6.70;;;;;;;16.98;99.82;150330.03;4988842;28;20576;-57
2023/09/10 04:32:45;;;;;;;11.87;6.73;;;;;;;16.93;100.00;150317.47;5006731;28;20395;-57
2023/09/10 04:35:12;;;;;;;9.53;6.77;;;;;;;16.85;100.00;150298.75;5003692;28;20647;-57
2023/09/10 04:37:39;;;;;;;11.97;6.80;;;;;;;16.88;99.99;150304.97;4978856;28;20765;-56
2023/09/10 04:40:07;;;;;;;8.10;6.30;;;;;;;16.81;100.00;150289.97;4986118;28;20226;-57
2023/09/10 04:42:35;;;;;;;8.40;6.50;;;;;;;16.75;100.00;150273.75;4977852;28;20741;-57
2023/09/10 04:45:03;;;;;;;10.23;6.53;;;;;;;16.70;100.00;150262.47;4976953;28;20259;-56
2023/09/10 04:47:31;;;;;;;12.37;6.93;;;;;;;16.67;100.00;150256.22;4988560;28;20226;-57
2023/09/10 04:49:58;;;;;;;8.93;6.63;;;;;;;16.64;100.00;150247.44;4999819;28;20941;-58
2023/09/10 04:52:25;;;;;;;8.23;6.23;;;;;;;16.60;100.00;150237.44;4993344;28;20332;-58
2023/09/10 04:54:52;;;;;;;9.80;7.17;;;;;;;16.59;100.00;150234.94;4991165;28;20255;-55
2023/09/10 04:57:19;;;;;;;9.00;6.73;;;;;;;16.57;100.00;150231.22;4988771;28;20236;-57
2023/09/10 04:59:46;;;;;;;10.77;8.07;;;;;;;16.63;100.00;150246.22;4982025;28;20297;-57
2023/09/10 05:02:13;;;;;;;8.13;7.07;;;;;;;16.58;100.00;150232.44;4992257;28;20261;-57
2023/09/10 05:04:41;;;;;;;11.40;7.10;;;;;;;16.62;100.00;150242.44;4992845;28;20278;-56
2023/09/10 05:07:08;;;;;;;8.80;7.27;;;;;;;16.62;100.00;150242.44;5001359;28;20679;-55
2023/09/10 05:09:35;;;;;;;11.27;7.27;;;;;;;16.63;100.00;150246.22;4988853;28;20627;-57
2023/09/10 05:12:02;;;;;;;10.20;6.40;;;;;;;16.64;100.00;150248.72;4987127;28;20603;-57
2023/09/10 05:14:28;;;;;;;12.77;7.37;;;;;;;16.71;100.00;150263.72;4979595;28;20323;-56
2023/09/10 05:16:55;;;;;;;10.30;7.17;;;;;;;16.74;100.00;150271.22;4985350;28;20254;-57
2023/09/10 05:19:24;;;;;;;8.37;6.53;;;;;;;16.75;100.00;150273.75;5002913;28;20294;-57
2023/09/10 05:21:52;;;;;;;10.27;6.93;;;;;;;16.78;100.00;150281.25;4988488;28;20317;-56
2023/09/10 05:24:23;;;;;;;11.47;7.27;;;;;;;16.84;100.00;150296.25;4979131;28;20224;-57
2023/09/10 05:26:49;;;;;;;9.20;7.10;;;;;;;16.99;100.00;150331.25;5001611;28;20221;-57
2023/09/10 05:29:16;;;;;;;8.70;6.87;;;;;;;16.97;100.00;150328.75;4992269;28;20595;-57
2023/09/10 05:31:42;;;;;;;9.50;7.43;;;;;;;16.95;100.00;150322.47;4987436;28;20227;-57
2023/09/10 05:34:09;;;;;;;9.60;6.80;;;;;;;17.00;100.00;150335.03;4984828;28;20239;-56
2023/09/10 05:36:36;;;;;;;9.03;6.17;;;;;;;17.01;100.00;150337.53;4987072;28;20220;-57
2023/09/10 05:39:04;;;;;;;11.97;6.80;;;;;;;17.07;100.00;150352.53;4991201;28;20277;-58
2023/09/10 05:41:31;;;;;;;11.77;7.00;;;;;;;17.08;100.00;150353.78;4977687;28;20235;-56
2023/09/10 05:43:58;;;;;;;11.33;6.20;;;;;;;17.10;100.00;150358.78;4984444;28;20231;-55
2023/09/10 05:46:26;;;;;;;8.93;7.23;;;;;;;17.14;100.00;150368.78;5002429;28;20834;-58
2023/09/10 05:48:52;;;;;;;9.90;6.83;;;;;;;17.20;100.00;150382.56;4985422;28;20279;-57
2023/09/10 05:51:19;;;;;;;14.67;7.07;;;;;;;17.19;100.00;150380.06;5001822;28;20248;-57
2023/09/10 05:53:46;;;;;;;10.30;7.13;;;;;;;17.21;100.00;150386.28;4987758;28;20718;-58
2023/09/10 05:56:14;;;;;;;12.57;7.10;;;;;;;17.23;100.00;150390.06;4983246;28;20258;-57
2023/09/10 05:58:41;;;;;;;13.37;7.07;;;;;;;17.24;100.00;150393.78;4974036;28;20274;-58
2023/09/10 06:01:08;;;;;;;10.37;7.17;;;;;;;17.24;100.00;150393.78;5002774;28;20221;-58
2023/09/10 06:03:34;;;;;;;10.27;7.53;;;;;;;17.25;100.00;150396.28;4988053;28;20227;-57
2023/09/10 06:06:01;;;;;;;15.10;7.73;;;;;;;17.28;100.00;150402.56;4985022;28;20224;-58
2023/09/10 06:08:29;;;;;;;11.00;7.30;;;;;;;17.31;100.00;150408.81;5000415;28;20235;-56
2023/09/10 06:10:56;;;;;;;16.93;8.13;;;;;;;17.30;100.00;150407.56;5002066;28;20560;-58
2023/09/10 06:13:24;;;;;;;9.33;7.33;;;;;;;17.33;100.00;150415.09;4973867;28;20704;-57
2023/09/10 06:15:51;;;;;;;8.93;7.10;;;;;;;17.35;100.00;150420.09;4984222;28;20696;-58
2023/09/10 06:18:17;;;;;;;13.23;7.27;;;;;;;17.38;100.00;150426.31;4977468;28;20294;-58
2023/09/10 06:20:44;;;;;;;10.23;7.33;;;;;;;17.39;100.00;150430.09;4987561;28;20561;-58
2023/09/10 06:23:11;;;;;;;10.60;7.60;;;;;;;17.39;100.00;150430.09;4984510;28;20233;-57
2023/09/10 06:25:37;;;;;;;13.27;7.63;;;;;;;17.42;100.00;150436.31;4990044;28;20220;-57
2023/09/10 06:28:05;;;;;;;12.70;7.27;;;;;;;17.48;100.00;150450.09;4984535;28;20286;-55
2023/09/10 06:30:33;;;;;;;11.10;7.10;;;;;;;17.48;100.00;150451.34;5002677;28;20224;-57
2023/09/10 06:33:00;;;;;;;11.57;7.03;;;;;;;17.49;100.00;150453.84;4982879;28;20228;-57
2023/09/10 06:35:26;;;;;;;11.13;7.33;;;;;;;17.50;100.00;150455.06;5004299;28;20259;-58
2023/09/10 06:37:53;;;;;;;10.20;7.40;;;;;;;17.52;100.00;150461.34;4984388;28;20232;-55
2023/09/10 06:40:22;;;;;;;10.93;7.13;;;;;;;17.58;100.00;150473.84;4985005;28;20315;-56
2023/09/10 06:42:49;;;;;;;11.73;7.57;;;;;;;17.64;100.00;150488.88;4998760;28;20228;-57
2023/09/10 06:45:38;;;;;;;14.63;7.67;;;;;;;17.72;100.00;150508.88;4987464;28;20224;-57
2023/09/10 06:48:05;;;;;;;16.67;7.73;;;;;;;17.78;100.00;150522.63;5001887;28;20247;-56
2023/09/10 06:50:32;;;;;;;14.33;7.83;;;;;;;17.83;100.00;150536.41;5004597;28;20695;-56
2023/09/10 06:52:59;;;;;;;14.43;7.73;;;;;;;17.90;100.00;150552.66;5001428;28;20226;-55
2023/09/10 06:55:25;;;;;;;13.20;7.97;;;;;;;17.96;100.00;150566.44;5003945;28;20589;-57
2023/09/10 06:57:52;;;;;;;12.83;8.30;;;;;;;18.07;100.00;150593.97;5001704;28;20229;-57
2023/09/10 07:00:19;;;;;;;12.87;8.87;;;;;;;18.15;100.00;150614.00;5004170;28;20264;-58
2023/09/10 07:02:47;;;;;;;14.13;9.10;;;;;;;18.27;100.00;150642.78;5003409;28;20311;-57
2023/09/10 07:05:14;;;;;;;12.37;9.43;;;;;;;18.36;100.00;150662.81;5001310;28;20247;-57
2023/09/10 07:07:40;;;;;;;12.50;9.07;;;;;;;18.48;100.00;150691.59;5003983;28;20231;-57
2023/09/10 07:10:08;;;;;;;12.37;8.60;;;;;;;18.59;100.00;150720.34;5000941;28;20230;-57
2023/09/10 07:12:34;;;;;;;12.40;9.07;;;;;;;18.73;100.00;150754.16;4985846;28;20222;-57
2023/09/10 07:15:02;;;;;;;12.53;8.80;;;;;;;18.83;100.00;150776.72;5001445;28;20691;-56
2023/09/10 07:17:28;;;;;;;12.50;8.77;;;;;;;18.96;100.00;150809.31;5002653;28;20238;-57
2023/09/10 07:19:56;;;;;;;15.90;9.60;;;;;;;19.10;100.00;150841.81;5001324;28;20250;-56
2023/09/10 07:22:23;;;;;;;12.97;9.33;;;;;;;19.22;100.00;150871.88;4976440;28;20897;-58
2023/09/10 07:24:50;;;;;;;14.90;9.40;;;;;;;19.39;100.00;150911.94;5000337;28;20219;-55
2023/09/10 07:27:16;;;;;;;14.00;9.43;;;;;;;19.54;100.00;150948.28;5003321;28;20245;-56
2023/09/10 07:29:43;;;;;;;12.00;9.40;;;;;;;19.66;100.00;150978.28;4977772;28;20268;-56
2023/09/10 07:32:09;;;;;;;13.70;10.30;;;;;;;19.80;100.00;151010.84;4999753;28;20230;-57
2023/09/10 07:34:36;;;;;;;19.13;10.30;;;;;;;19.93;100.00;151043.47;5002769;28;20229;-57
2023/09/10 07:37:04;;;;;;;17.13;9.70;;;;;;;20.04;100.00;151071.03;5000925;28;20229;-56
2023/09/10 07:39:31;;;;;;;14.67;10.50;;;;;;;20.18;100.00;151104.84;5003287;28;20226;-57
2023/09/10 07:41:58;;;;;;;14.67;9.67;;;;;;;20.30;100.00;151132.41;5001170;28;20225;-57
2023/09/10 07:44:24;;;;;;;15.77;11.70;;;;;;;20.42;100.00;151161.25;5003673;28;20226;-57
2023/09/10 07:46:52;;;;;;;14.67;10.97;;;;;;;20.50;100.00;151182.53;5001028;28;20241;-58
2023/09/10 07:49:22;;;;;;;19.97;11.20;;;;;;;20.55;100.00;151192.53;5002168;28;20225;-57
2023/09/10 07:51:49;;;;;;;19.13;11.57;;;;;;;20.71;100.00;151232.66;4999420;28;20241;-57
2023/09/10 07:54:17;;;;;;;17.33;10.40;;;;;;;20.84;100.00;151264.00;5003882;28;20237;-58
2023/09/10 07:56:45;;;;;;;13.33;10.53;;;;;;;20.96;100.00;151291.56;5006870;28;20337;-58
2023/09/10 07:59:12;;;;;;;16.80;10.73;;;;;;;21.04;100.00;151312.91;5003236;28;20235;-57
2023/09/10 08:01:39;;;;;;;12.03;8.57;;;;;;;21.10;99.17;151326.69;5003967;28;20239;-57
2023/09/10 08:04:06;;;;;;;19.03;10.27;;;;;;;21.21;99.80;151352.97;5003011;28;20233;-57
2023/09/10 08:06:33;;;;;;;10.27;9.17;;;;;;;21.30;97.86;151375.53;5007301;28;20239;-58
2023/09/10 08:08:59;;;;;;;18.47;10.07;;;;;;;21.38;96.80;151395.59;5003831;28;20233;-58
2023/09/10 08:11:27;;;;;;;18.17;11.70;;;;;;;21.53;95.64;151430.69;5007175;28;20233;-58
2023/09/10 08:13:54;;;;;;;14.23;10.60;;;;;;;21.58;95.90;151443.25;4986035;28;20216;-58
2023/09/10 08:16:20;;;;;;;13.80;11.00;;;;;;;21.68;95.36;151468.38;5005743;28;20571;-58
2023/09/10 08:18:47;;;;;;;14.60;10.83;;;;;;;21.77;94.68;151489.66;5005915;28;20713;-57
2023/09/10 08:21:14;;;;;;;14.20;10.83;;;;;;;21.85;94.13;151507.22;5003532;28;20714;-58
2023/09/10 08:23:42;;;;;;;15.93;10.63;;;;;;;21.97;93.79;151537.31;5006351;28;20221;-57
2023/09/10 08:26:09;;;;;;;13.03;10.97;;;;;;;21.99;94.09;151542.31;5002185;28;20699;-56
2023/09/10 08:28:37;;;;;;;13.47;11.43;;;;;;;22.06;93.52;151558.66;5006360;28;20215;-57
2023/09/10 08:31:04;;;;;;;13.50;11.00;;;;;;;22.15;93.40;151581.22;4985390;28;20246;-58
2023/09/10 08:33:30;;;;;;;19.57;12.20;;;;;;;22.28;93.85;151612.56;4978316;28;20245;-57
2023/09/10 08:35:57;;;;;;;20.17;13.80;;;;;;;22.28;93.45;151612.56;5004190;28;20729;-57
2023/09/10 08:38:23;;;;;;;19.43;13.43;;;;;;;22.31;93.50;151618.81;5006462;28;20526;-58
2023/09/10 08:41:01;;;;;;;17.43;12.33;;;;;;;22.43;94.17;151648.91;5001742;28;20230;-58
2023/09/10 08:43:37;;;;;;;17.17;12.07;;;;;;;22.54;92.63;151675.34;5004990;28;20234;-58
2023/09/10 08:46:09;;;;;;;17.50;13.53;;;;;;;22.61;91.34;151691.63;5001555;28;20757;-58
2023/09/10 08:48:40;;;;;;;17.57;12.30;;;;;;;22.62;90.97;151694.13;5004823;28;20241;-58
2023/09/10 08:51:07;;;;;;;17.47;12.33;;;;;;;22.55;91.48;151679.06;4999208;28;20238;-58
2023/09/10 08:53:36;;;;;;;15.43;12.80;;;;;;;22.59;92.82;151687.88;5006542;28;20212;-58
2023/09/10 08:56:03;;;;;;;21.47;12.20;;;;;;;22.73;91.40;151721.72;4975572;28;20220;-58
2023/09/10 08:58:32;;;;;;;24.13;12.70;;;;;;;22.77;89.93;151731.78;5005732;28;20268;-58
2023/09/10 09:01:00;;;;;;;15.10;12.10;;;;;;;22.83;90.28;151745.53;5002781;28;20247;-58
2023/09/10 09:03:28;;;;;;;13.93;12.20;;;;;;;22.90;87.77;151763.09;5003487;28;20237;-58
2023/09/10 09:05:58;;;;;;;15.50;12.03;;;;;;;22.93;87.13;151769.41;5001852;28;20693;-58
2023/09/10 09:08:30;;;;;;;17.07;12.73;;;;;;;22.91;88.46;151764.38;5005531;28;20238;-58
2023/09/10 09:10:59;;;;;;;15.93;12.23;;;;;;;23.00;89.68;151786.97;5003321;28;20678;-58
2023/09/10 09:13:26;;;;;;;15.87;12.37;;;;;;;23.13;88.08;151818.31;5004872;28;20590;-58
2023/09/10 09:15:54;;;;;;;16.73;12.53;;;;;;;23.15;88.04;151824.63;5002787;28;20223;-57
2023/09/10 09:18:21;;;;;;;13.87;12.30;;;;;;;23.19;88.13;151833.38;5004235;28;20241;-58
2023/09/10 09:20:51;;;;;;;16.10;12.83;;;;;;;23.23;89.82;151843.47;5005611;28;20229;-57
2023/09/10 09:23:22;;;;;;;14.90;11.67;;;;;;;23.42;88.04;151888.66;5002361;28;20243;-58
2023/09/10 09:25:49;;;;;;;14.87;12.50;;;;;;;23.41;86.88;151887.38;4979402;28;20219;-57
2023/09/10 09:28:16;;;;;;;15.23;11.47;;;;;;;23.53;85.95;151914.97;5003086;28;20235;-59
2023/09/10 09:30:43;;;;;;;15.53;12.27;;;;;;;23.55;85.14;151921.28;5003888;28;20720;-59
2023/09/10 09:33:10;;;;;;;15.67;12.03;;;;;;;23.58;85.86;151928.81;5000820;28;20244;-59
2023/09/10 09:35:36;;;;;;;19.20;13.00;;;;;;;23.73;84.84;151963.97;5005723;28;20225;-59
2023/09/10 09:38:09;;;;;;;17.07;11.87;;;;;;;23.71;85.25;151960.16;5002552;28;20234;-58
2023/09/10 09:40:36;;;;;;;15.20;12.10;;;;;;;23.71;84.89;151960.16;5004794;28;20697;-59
2023/09/10 09:43:07;;;;;;;15.47;12.53;;;;;;;23.84;85.43;151990.28;5002854;28;20238;-59
2023/09/10 09:45:35;;;;;;;19.63;13.23;;;;;;;23.82;86.03;151986.56;5005622;28;20219;-58
2023/09/10 09:48:02;;;;;;;15.13;11.50;;;;;;;23.95;85.54;152017.91;4974189;28;20719;-58
2023/09/10 09:50:29;;;;;;;16.13;11.73;;;;;;;24.08;85.55;152048.09;5004685;28;20694;-54
2023/09/10 09:52:56;;;;;;;17.80;11.97;;;;;;;24.14;84.66;152063.16;5002055;28;20243;-54
2023/09/10 09:55:26;;;;;;;15.47;12.13;;;;;;;24.20;84.54;152078.22;5003307;28;20318;-54
2023/09/10 09:57:53;;;;;;;17.57;13.03;;;;;;;24.16;84.67;152068.19;5002454;28;20227;-55
2023/09/10 10:00:19;;;;;;;17.33;12.97;;;;;;;24.04;86.60;152039.28;5003433;28;20235;-56
2023/09/10 10:02:46;;;;;;;17.53;11.63;;;;;;;24.21;84.55;152079.44;5003174;28;20320;-56
2023/09/10 10:05:13;;;;;;;17.03;12.30;;;;;;;24.27;84.14;152094.53;5001224;28;20246;-58
2023/09/10 10:07:41;;;;;;;20.20;12.63;;;;;;;24.21;85.85;152080.72;5004175;28;20281;-55
2023/09/10 10:10:09;;;;;;;15.60;13.20;;;;;;;24.27;85.31;152094.53;5002539;28;20232;-56
2023/09/10 10:12:37;;;;;;;15.60;11.50;;;;;;;24.40;84.69;152125.88;5005023;28;20215;-56
2023/09/10 10:15:05;;;;;;;17.27;12.20;;;;;;;24.51;84.67;152153.50;5001671;28;20262;-56
2023/09/10 10:17:32;;;;;;;16.17;12.67;;;;;;;24.44;85.00;152135.94;5003493;28;20229;-56
2023/09/10 10:19:59;;;;;;;14.47;12.10;;;;;;;24.53;84.60;152158.53;5001145;28;20226;-56
2023/09/10 10:22:26;;;;;;;17.50;12.70;;;;;;;24.70;84.22;152200.00;5004516;28;20231;-57
2023/09/10 10:24:53;;;;;;;17.73;13.17;;;;;;;24.65;84.13;152187.44;4983696;28;20227;-59
2023/09/10 10:27:24;;;;;;;13.90;12.13;;;;;;;24.76;81.99;152213.84;5003303;28;20237;-55
2023/09/10 10:29:52;;;;;;;16.53;12.47;;;;;;;24.80;82.90;152223.88;5002035;28;20222;-57
2023/09/10 10:32:27;;;;;;;18.20;11.67;;;;;;;24.79;81.48;152221.38;5004176;28;20234;-56
2023/09/10 10:34:57;;;;;;;16.87;11.87;;;;;;;24.98;83.13;152267.81;5000646;28;20243;-56
2023/09/10 10:37:31;;;;;;;16.60;12.37;;;;;;;24.89;81.01;152245.28;5003291;28;20254;-57
2023/09/10 10:40:06;;;;;;;14.90;11.17;;;;;;;25.11;79.93;152299.25;5001655;28;20235;-56
2023/09/10 10:42:38;;;;;;;14.47;11.17;;;;;;;25.18;79.09;152315.56;5002856;28;20755;-57
2023/09/10 10:45:09;;;;;;;14.27;11.50;;;;;;;25.22;78.33;152324.38;4990517;28;20241;-57
2023/09/10 10:47:39;;;;;;;12.90;11.00;;;;;;;25.37;77.07;152362.06;4994356;28;20229;-57
2023/09/10 10:50:09;;;;;;;14.07;10.40;;;;;;;25.35;75.87;152358.28;4993249;28;20221;-57
2023/09/10 10:52:42;;;;;;;12.67;11.07;;;;;;;25.33;75.41;152353.25;4996509;28;20357;-56
2023/09/10 10:55:10;;;;;;;12.27;10.47;;;;;;;25.38;75.42;152364.56;4993016;28;20247;-56
2023/09/10 10:57:38;;;;;;;13.57;10.93;;;;;;;25.53;76.06;152401.03;4995427;28;20226;-55
2023/09/10 11:00:08;;;;;;;16.17;10.53;;;;;;;25.47;73.92;152385.97;4992216;28;20237;-56
2023/09/10 11:02:35;;;;;;;12.20;9.93;;;;;;;25.65;73.87;152429.91;4990076;28;20785;-57
2023/09/10 11:05:04;;;;;;;12.93;10.23;;;;;;;25.62;72.03;152422.38;4991277;28;20225;-56
2023/09/10 11:07:32;;;;;;;12.40;9.97;;;;;;;25.77;71.34;152458.84;4996017;28;20568;-57
2023/09/10 11:09:59;;;;;;;15.13;9.93;;;;;;;25.79;70.99;152463.88;4994164;28;20218;-54
2023/09/10 11:12:27;;;;;;;11.93;9.90;;;;;;;25.88;69.79;152485.19;4998724;28;20244;-54
2023/09/10 11:15:13;;;;;;;13.90;9.47;;;;;;;26.08;69.51;152535.47;4995461;28;20223;-57
2023/09/10 11:17:40;;;;;;;12.30;8.90;;;;;;;26.08;70.11;152534.19;4995685;28;20273;-54